Terminal Aerodrome Forecast
Issued by NWS

Home | Current Version | Previous Version | Text Only | Print | Product List | Glossary On
Versions: 1 2 3 4 5 6 7 8 9 10 11 12 13 14 15 16 17
930
FTUS43 KPAH 170810 AAA
TAFCGI
TAF AMD
KCGI 170810Z 1708/1806 00000KT P6SM BCFG SKC
     FM171500 16005KT P6SM SKC=

USA.gov is the U.S. government's official web portal to all federal, state and local government web resources and services.